Sneedville, Tennessee
Current Conditions -  °F | °C
As of 11:35 AM on Tuesday 21 Oct 2014 (Local Time) from K0VG Reporting Station
Clear Clear  
Wind Chill: 57°   Ceiling: Unl
Heat Index: 57°   Visibility: 10mi
Dew Point: 48°   Wind: 6mph
Humidity: 72%   Direction: 290°WNW
Pressure: 30.04"   Gusts: NA
Location:  36.53°N, 83.22°W
Report Text: K0VG 211535Z AUTO 29005KT 10SM CLR 14/09 A3004 RMK AO2
Loading
Personal Weather Stations






























Interactive Weather Map
Tropical Storm Tracking
New forecast layout! Learn more

10-Day Weather Forecast

Advertisements
Track Severe Weather on mobile